createdAt,value
2023-03-03T00:02:02.641Z,95019.34
2023-03-03T00:04:45.853Z,95020.22
2023-03-03T00:07:29.110Z,95021.81
2023-03-03T00:10:14.000Z,95022.16
2023-03-03T00:12:57.433Z,95021.28
2023-03-03T00:15:40.578Z,95021.28
2023-03-03T00:18:34.836Z,95012.41
2023-03-03T00:21:42.565Z,95012.06
2023-03-03T00:24:26.858Z,95004.72
2023-03-03T00:27:21.712Z,95012.94
2023-03-03T00:30:18.409Z,95005.88
2023-03-03T00:33:01.719Z,95015.00
2023-03-03T00:35:46.362Z,95005.69
2023-03-03T00:38:29.663Z,95007.22
2023-03-03T00:41:21.669Z,94997.19
2023-03-03T00:44:40.430Z,94990.56
2023-03-03T00:47:32.824Z,94982.69
2023-03-03T00:50:30.144Z,94978.41
2023-03-03T00:53:17.350Z,94975.13
2023-03-03T00:56:00.512Z,94976.31
2023-03-03T00:58:44.382Z,94969.28
2023-03-03T01:01:27.763Z,94961.25
2023-03-03T01:04:11.298Z,94960.97
2023-03-03T01:06:54.627Z,94966.56
2023-03-03T01:09:39.618Z,94959.47
2023-03-03T01:12:22.983Z,94960.53
2023-03-03T01:15:08.223Z,94947.78
2023-03-03T01:17:53.188Z,94952.19
2023-03-03T01:20:36.653Z,94960.28
2023-03-03T01:23:19.890Z,94956.75
2023-03-03T01:26:05.490Z,94950.63
2023-03-03T01:28:48.762Z,94953.38
2023-03-03T01:31:32.069Z,94944.31
2023-03-03T01:34:15.314Z,94938.31
2023-03-03T01:36:58.490Z,94942.63
2023-03-03T01:39:41.801Z,94937.44
2023-03-03T01:42:29.339Z,94934.31
2023-03-03T01:45:17.032Z,94941.84
2023-03-03T01:48:07.246Z,94938.66
2023-03-03T01:50:55.158Z,94933.25
2023-03-03T01:53:43.805Z,94934.84
2023-03-03T01:56:27.312Z,94941.94
2023-03-03T01:59:17.394Z,94924.94
2023-03-03T02:02:00.713Z,94921.47
2023-03-03T02:04:44.074Z,94928.66
2023-03-03T02:07:30.389Z,94929.91
2023-03-03T02:10:15.509Z,94931.84
2023-03-03T02:13:00.073Z,94936.78
2023-03-03T02:15:44.776Z,94928.66
2023-03-03T02:18:29.090Z,94933.25
2023-03-03T02:21:15.661Z,94928.03
2023-03-03T02:24:05.001Z,94929.72
2023-03-03T02:26:50.286Z,94934.41
2023-03-03T02:29:33.359Z,94935.75
2023-03-03T02:32:16.623Z,94933.19
2023-03-03T02:34:59.893Z,94932.47
2023-03-03T02:37:43.836Z,94928.47
2023-03-03T02:40:29.905Z,94931.91
2023-03-03T02:43:18.670Z,94926.19
2023-03-03T02:46:01.972Z,94931.03
2023-03-03T02:48:45.329Z,94932.38
2023-03-03T02:51:28.775Z,94938.81
2023-03-03T02:54:13.374Z,94930.78
2023-03-03T02:56:56.823Z,94923.00
2023-03-03T02:59:41.672Z,94923.00
2023-03-03T03:02:24.925Z,94921.31
2023-03-03T03:05:11.660Z,94921.06
2023-03-03T03:07:54.824Z,94921.22
2023-03-03T03:10:38.525Z,94915.19
2023-03-03T03:13:21.656Z,94918.75
2023-03-03T03:16:07.234Z,94922.03
2023-03-03T03:18:51.035Z,94925.00
2023-03-03T03:21:34.710Z,94919.00
2023-03-03T03:24:18.228Z,94924.13
2023-03-03T03:27:01.353Z,94913.06
2023-03-03T03:29:44.528Z,94913.69
2023-03-03T03:32:29.241Z,94919.09
2023-03-03T03:35:13.571Z,94906.78
2023-03-03T03:37:56.721Z,94909.34
2023-03-03T03:40:39.917Z,94915.28
2023-03-03T03:43:23.734Z,94901.81
2023-03-03T03:46:07.110Z,94903.88
2023-03-03T03:48:51.822Z,94893.41
2023-03-03T03:51:38.244Z,94892.44
2023-03-03T03:54:21.587Z,94897.78
2023-03-03T03:57:05.020Z,94903.78
2023-03-03T03:59:50.803Z,94898.38
2023-03-03T04:02:34.385Z,94893.84
2023-03-03T04:05:19.604Z,94898.28
2023-03-03T04:08:02.832Z,94894.66
2023-03-03T04:10:46.020Z,94894.31
2023-03-03T04:13:32.054Z,94892.00
2023-03-03T04:16:15.331Z,94893.41
2023-03-03T04:18:58.672Z,94885.78
2023-03-03T04:21:43.288Z,94885.47
2023-03-03T04:24:26.683Z,94895.00
2023-03-03T04:27:10.390Z,94889.78
2023-03-03T04:29:53.780Z,94885.28
2023-03-03T04:32:37.075Z,94889.88
2023-03-03T04:35:20.688Z,94887.06
2023-03-03T04:38:06.093Z,94880.66
2023-03-03T04:40:49.604Z,94886.16
2023-03-03T04:43:32.892Z,94888.81
2023-03-03T04:46:16.148Z,94879.78
2023-03-03T04:48:59.985Z,94886.00
2023-03-03T04:51:43.242Z,94874.56
2023-03-03T04:54:27.962Z,94874.66
2023-03-03T04:57:11.370Z,94888.78
2023-03-03T04:59:54.633Z,94888.47
2023-03-03T05:02:37.894Z,94898.16
2023-03-03T05:05:21.074Z,94892.69
2023-03-03T05:08:04.360Z,94890.84
2023-03-03T05:10:52.603Z,94894.38
2023-03-03T05:13:36.173Z,94892.16
2023-03-03T05:16:19.427Z,94899.97
2023-03-03T05:19:02.634Z,94899.28
2023-03-03T05:21:46.163Z,94903.16
2023-03-03T05:24:29.753Z,94902.00
2023-03-03T05:27:14.454Z,94908.19
2023-03-03T05:29:58.085Z,94903.84
2023-03-03T05:32:41.575Z,94908.00
2023-03-03T05:35:24.875Z,94906.09
2023-03-03T05:38:08.250Z,94907.47
2023-03-03T05:40:51.488Z,94906.59
2023-03-03T05:43:36.190Z,94897.50
2023-03-03T05:46:19.951Z,94908.97
2023-03-03T05:49:03.423Z,94912.13
2023-03-03T05:51:46.741Z,94912.16
2023-03-03T05:55:18.511Z,94910.63
2023-03-03T05:58:01.777Z,94907.44
2023-03-03T06:00:45.361Z,94908.72
2023-03-03T06:03:28.997Z,94900.13
2023-03-03T06:06:12.548Z,94899.72
2023-03-03T06:08:57.277Z,94910.06
2023-03-03T06:11:41.878Z,94907.63
2023-03-03T06:14:27.047Z,94911.66
2023-03-03T06:17:11.189Z,94915.31
2023-03-03T06:19:54.698Z,94911.84
2023-03-03T06:22:38.210Z,94915.03
2023-03-03T06:25:21.464Z,94917.38
2023-03-03T06:28:06.805Z,94918.66
2023-03-03T06:30:50.135Z,94907.63
2023-03-03T06:33:34.528Z,94919.66
2023-03-03T06:36:17.959Z,94916.63
2023-03-03T06:39:02.848Z,94924.59
2023-03-03T06:41:46.479Z,94916.63
2023-03-03T06:44:31.502Z,94919.63
2023-03-03T06:47:15.034Z,94910.88
2023-03-03T06:49:58.348Z,94919.22
2023-03-03T06:52:42.115Z,94922.69
2023-03-03T06:55:25.611Z,94922.97
2023-03-03T06:58:15.362Z,94924.81
2023-03-03T07:01:02.011Z,94919.91
2023-03-03T07:03:46.126Z,94932.09
2023-03-03T07:06:30.735Z,94926.38
2023-03-03T07:09:24.519Z,94933.75
2023-03-03T07:12:13.767Z,94919.63
2023-03-03T07:15:03.416Z,94928.00
2023-03-03T07:17:51.249Z,94930.78
2023-03-03T07:20:39.584Z,94917.28
2023-03-03T07:23:26.820Z,94921.66
2023-03-03T07:26:13.379Z,94918.47
2023-03-03T07:28:59.868Z,94920.06
2023-03-03T07:31:46.985Z,94912.31
2023-03-03T07:34:40.270Z,94914.72
2023-03-03T07:37:34.419Z,94909.94
2023-03-03T07:40:36.446Z,94911.13
2023-03-03T07:43:32.909Z,94905.16
2023-03-03T07:46:24.894Z,94911.53
2023-03-03T07:49:22.279Z,94908.75
2023-03-03T07:52:25.070Z,94906.56
2023-03-03T07:55:28.398Z,94903.38
2023-03-03T07:58:23.817Z,94903.78
2023-03-03T08:01:40.567Z,94902.53
2023-03-03T08:04:29.798Z,94898.91
2023-03-03T08:07:18.099Z,94897.69
2023-03-03T08:10:02.520Z,94896.13
2023-03-03T08:12:47.481Z,94904.16
2023-03-03T08:15:38.079Z,94898.78
2023-03-03T08:18:26.082Z,94905.38
2023-03-03T08:21:12.632Z,94912.50
2023-03-03T08:23:57.873Z,94898.56
2023-03-03T08:26:41.080Z,94897.38
2023-03-03T08:29:24.270Z,94892.84
2023-03-03T08:32:09.137Z,94890.69
2023-03-03T08:34:52.480Z,94898.19
2023-03-03T08:37:35.725Z,94899.59
2023-03-03T08:40:20.500Z,94891.88
2023-03-03T08:43:04.200Z,94901.59
2023-03-03T08:45:49.912Z,94901.22
2023-03-03T08:48:34.526Z,94899.81
2023-03-03T08:51:18.235Z,94888.28
2023-03-03T08:54:01.501Z,94894.66
2023-03-03T08:56:46.290Z,94891.66
2023-03-03T08:59:30.775Z,94885.09
2023-03-03T09:02:13.974Z,94896.78
2023-03-03T09:04:57.530Z,94886.22
2023-03-03T09:07:41.449Z,94896.16
2023-03-03T09:10:29.712Z,94891.41
2023-03-03T09:13:19.098Z,94887.22
2023-03-03T09:16:02.597Z,94891.72
2023-03-03T09:18:45.936Z,94889.69
2023-03-03T09:21:33.906Z,94886.09
2023-03-03T09:24:26.030Z,94893.38
2023-03-03T09:27:20.006Z,94887.78
2023-03-03T09:30:17.828Z,94884.81
2023-03-03T09:33:01.257Z,94888.56
2023-03-03T09:35:45.683Z,94885.56
2023-03-03T09:38:31.765Z,94890.69
2023-03-03T09:41:45.177Z,94881.25
2023-03-03T09:44:49.753Z,94881.66
2023-03-03T09:47:46.486Z,94875.28
2023-03-03T09:50:42.443Z,94886.38
2023-03-03T09:53:39.239Z,94885.66
2023-03-03T09:56:29.819Z,94889.91
2023-03-03T09:59:28.236Z,94884.72
2023-03-03T10:02:32.967Z,94887.66
2023-03-03T10:05:27.453Z,94877.06
2023-03-03T10:08:23.538Z,94879.69
2023-03-03T10:11:18.013Z,94880.59
2023-03-03T10:14:31.625Z,94876.03
2023-03-03T10:17:32.922Z,94875.34
2023-03-03T10:20:49.540Z,94873.31
2023-03-03T10:23:56.858Z,94865.06
2023-03-03T10:27:13.083Z,94861.88
2023-03-03T10:30:04.736Z,94859.94
2023-03-03T10:32:55.458Z,94868.66
2023-03-03T10:36:07.443Z,94862.00
2023-03-03T10:39:07.976Z,94849.81
2023-03-03T10:42:12.321Z,94850.53
2023-03-03T10:45:11.929Z,94858.72
2023-03-03T10:48:06.833Z,94853.53
2023-03-03T10:51:03.150Z,94858.56
2023-03-03T10:54:00.547Z,94851.00
2023-03-03T10:56:55.635Z,94849.22
2023-03-03T10:59:56.249Z,94837.25
2023-03-03T11:02:53.583Z,94843.66
2023-03-03T11:05:41.655Z,94846.25
2023-03-03T11:08:31.687Z,94844.28
2023-03-03T11:11:19.688Z,94836.94
2023-03-03T11:14:08.695Z,94828.06
2023-03-03T11:17:02.457Z,94826.50
2023-03-03T11:20:01.295Z,94828.31
2023-03-03T11:22:51.749Z,94820.53
2023-03-03T11:25:44.905Z,94815.28
2023-03-03T11:28:41.724Z,94812.13
2023-03-03T11:31:37.103Z,94826.50
2023-03-03T11:34:37.412Z,94821.47
2023-03-03T11:37:26.018Z,94818.47
2023-03-03T11:40:17.690Z,94815.06
2023-03-03T11:43:14.174Z,94812.38
2023-03-03T11:46:06.918Z,94815.88
2023-03-03T11:48:57.166Z,94808.47
2023-03-03T11:51:53.791Z,94815.69
2023-03-03T11:54:45.999Z,94806.06
2023-03-03T11:57:36.294Z,94802.63
2023-03-03T12:00:27.809Z,94805.34
2023-03-03T12:03:27.126Z,94810.63
2023-03-03T12:06:24.150Z,94814.75
2023-03-03T12:09:22.663Z,94797.66
2023-03-03T12:12:09.408Z,94803.97
2023-03-03T12:15:05.874Z,94811.31
2023-03-03T12:18:17.121Z,94809.72
2023-03-03T12:21:13.442Z,94796.25
2023-03-03T12:24:27.589Z,94822.03
2023-03-03T12:27:21.126Z,94813.84
2023-03-03T12:30:18.992Z,94818.56
2023-03-03T12:33:23.734Z,94808.25
2023-03-03T12:36:20.216Z,94810.69
2023-03-03T12:39:13.535Z,94815.81
2023-03-03T12:42:06.581Z,94815.19
2023-03-03T12:44:59.411Z,94816.78
2023-03-03T12:47:50.517Z,94822.88
2023-03-03T12:50:45.744Z,94814.19
2023-03-03T12:53:54.994Z,94814.13
2023-03-03T12:56:42.926Z,94814.59
2023-03-03T12:59:36.277Z,94813.88
2023-03-03T13:02:40.754Z,94810.38
2023-03-03T13:05:29.506Z,94807.72
2023-03-03T13:08:47.515Z,94795.13
2023-03-03T13:11:47.347Z,94809.06
2023-03-03T13:14:38.136Z,94806.19
2023-03-03T13:17:28.895Z,94803.34
2023-03-03T13:20:23.999Z,94805.34
2023-03-03T13:23:11.730Z,94793.16
2023-03-03T13:26:01.885Z,94802.47
2023-03-03T13:28:58.757Z,94797.78
2023-03-03T13:31:47.859Z,94798.22
2023-03-03T13:34:41.812Z,94801.44
2023-03-03T13:37:30.871Z,94799.28
2023-03-03T13:40:19.633Z,94794.94
2023-03-03T13:43:10.289Z,94800.50
2023-03-03T13:46:05.733Z,94806.59
2023-03-03T13:49:03.712Z,94801.63
2023-03-03T13:51:59.335Z,94801.47
2023-03-03T13:55:01.755Z,94801.53
2023-03-03T13:57:58.998Z,94801.53
2023-03-03T14:00:57.051Z,94801.41
2023-03-03T14:04:06.416Z,94794.78
2023-03-03T14:06:57.574Z,94794.44
2023-03-03T14:10:03.038Z,94797.91
2023-03-03T14:12:52.650Z,94792.16
2023-03-03T14:15:41.847Z,94799.28
2023-03-03T14:18:35.304Z,94801.91
2023-03-03T14:21:26.194Z,94794.91
2023-03-03T14:24:16.701Z,94791.78
2023-03-03T14:27:01.874Z,94787.88
2023-03-03T14:29:47.407Z,94790.50
2023-03-03T14:32:44.874Z,94789.91
2023-03-03T14:35:34.922Z,94790.41
2023-03-03T14:38:20.434Z,94793.28
2023-03-03T14:41:15.157Z,94790.81
2023-03-03T14:44:00.699Z,94787.25
2023-03-03T14:46:45.615Z,94789.66
2023-03-03T14:49:33.061Z,94788.13
2023-03-03T14:52:28.941Z,94799.66
2023-03-03T14:55:34.495Z,94790.50
2023-03-03T14:58:31.071Z,94797.88
2023-03-03T15:01:18.913Z,94790.94
2023-03-03T15:04:04.561Z,94790.94
2023-03-03T15:06:50.031Z,94792.16
2023-03-03T15:09:41.949Z,94790.78
2023-03-03T15:12:28.063Z,94793.91
2023-03-03T15:15:20.361Z,94789.53
2023-03-03T15:18:04.344Z,94787.91
2023-03-03T15:20:54.186Z,94788.13
2023-03-03T15:27:06.277Z,94794.72
2023-03-03T15:30:02.835Z,94797.31
2023-03-03T15:32:52.039Z,94792.94
2023-03-03T15:35:48.916Z,94791.94
2023-03-03T15:38:43.385Z,94787.00
2023-03-03T15:41:31.919Z,94782.84
2023-03-03T15:44:24.711Z,94784.59
2023-03-03T15:47:32.463Z,94804.50
2023-03-03T15:50:43.442Z,94799.88
2023-03-03T15:53:43.828Z,94791.56
2023-03-03T15:56:34.808Z,94793.97
2023-03-03T15:59:43.735Z,94798.72
2023-03-03T16:02:38.061Z,94794.97
2023-03-03T16:05:25.079Z,94804.91
2023-03-03T16:08:16.061Z,94807.28
2023-03-03T16:11:09.015Z,94801.72
2023-03-03T16:14:05.252Z,94814.44
2023-03-03T16:16:56.508Z,94820.56
2023-03-03T16:19:47.960Z,94827.09
2023-03-03T16:22:56.453Z,94815.00
2023-03-03T16:26:00.969Z,94823.75
2023-03-03T16:29:03.774Z,94833.88
2023-03-03T16:31:54.487Z,94826.50
2023-03-03T16:34:47.446Z,94822.34
2023-03-03T16:37:34.734Z,94833.06
2023-03-03T16:40:24.825Z,94833.06
2023-03-03T16:43:23.101Z,94832.66
2023-03-03T16:46:18.960Z,94834.63
2023-03-03T16:49:12.471Z,94844.34
2023-03-03T16:52:04.537Z,94855.25
2023-03-03T16:54:56.349Z,94854.47
2023-03-03T16:57:52.682Z,94871.16
2023-03-03T17:00:41.918Z,94867.16
2023-03-03T17:03:41.699Z,94869.56
2023-03-03T17:06:35.495Z,94863.41
2023-03-03T17:09:57.515Z,94859.63
2023-03-03T17:12:55.651Z,94870.38
2023-03-03T17:15:52.839Z,94860.41
2023-03-03T17:18:47.914Z,94865.31
2023-03-03T17:21:58.731Z,94869.13
2023-03-03T17:24:53.729Z,94871.53
2023-03-03T17:27:51.751Z,94877.50
2023-03-03T17:30:43.785Z,94877.13
2023-03-03T17:33:51.078Z,94883.50
2023-03-03T17:36:46.614Z,94879.13
2023-03-03T17:40:03.806Z,94894.63
2023-03-03T17:42:57.327Z,94893.81
2023-03-03T17:45:44.026Z,94895.78
2023-03-03T17:48:52.861Z,94890.25
2023-03-03T17:52:11.843Z,94897.19
2023-03-03T17:55:23.475Z,94908.88
2023-03-03T17:58:43.166Z,94907.53
2023-03-03T18:01:42.035Z,94909.31
2023-03-03T18:05:01.291Z,94912.44
2023-03-03T18:07:59.230Z,94914.84
2023-03-03T18:11:15.142Z,94916.38
2023-03-03T18:14:20.515Z,94918.78
2023-03-03T18:17:43.194Z,94923.13
2023-03-03T18:21:04.989Z,94925.91
2023-03-03T18:23:49.893Z,94924.31
2023-03-03T18:26:39.784Z,94935.00
2023-03-03T18:29:28.215Z,94935.38
2023-03-03T18:32:23.080Z,94928.28
2023-03-03T18:35:25.400Z,94933.06
2023-03-03T18:38:34.950Z,94939.41
2023-03-03T18:41:26.731Z,94941.25
2023-03-03T18:44:29.668Z,94941.81
2023-03-03T18:47:15.116Z,94951.34
2023-03-03T18:50:05.349Z,94949.38
2023-03-03T18:53:13.704Z,94954.53
2023-03-03T18:55:59.032Z,94965.28
2023-03-03T18:58:43.471Z,94965.47
2023-03-03T19:01:45.310Z,94965.66
2023-03-03T19:04:28.813Z,94968.66
2023-03-03T19:07:26.932Z,94961.13
2023-03-03T19:10:50.060Z,94968.06
2023-03-03T19:13:52.037Z,94970.38
2023-03-03T19:16:38.453Z,94979.09
2023-03-03T19:19:24.609Z,94972.97
2023-03-03T19:22:25.889Z,94962.00
2023-03-03T19:25:25.226Z,94981.50
2023-03-03T19:28:30.261Z,94981.09
2023-03-03T19:31:23.144Z,94973.56
2023-03-03T19:34:14.832Z,94974.72
2023-03-03T19:37:29.072Z,94980.69
2023-03-03T19:40:23.306Z,94974.56
2023-03-03T19:43:17.320Z,94962.44
2023-03-03T19:46:30.496Z,94975.19
2023-03-03T19:49:23.776Z,94970.44
2023-03-03T19:52:19.696Z,94975.00
2023-03-03T19:55:24.722Z,94975.25
2023-03-03T19:58:22.435Z,94968.91
2023-03-03T20:01:15.500Z,94967.34
2023-03-03T20:04:15.002Z,94962.75
2023-03-03T20:07:05.664Z,94969.31
2023-03-03T20:09:58.905Z,94966.34
2023-03-03T20:13:04.703Z,94961.56
2023-03-03T20:15:58.597Z,94966.66
2023-03-03T20:19:08.360Z,94969.31
2023-03-03T20:22:04.484Z,94970.44
2023-03-03T20:25:05.224Z,94970.03
2023-03-03T20:28:01.280Z,94968.34
2023-03-03T20:30:53.585Z,94969.88
2023-03-03T20:33:50.483Z,94962.13
2023-03-03T20:36:41.974Z,94961.56
2023-03-03T20:39:39.781Z,94952.84
2023-03-03T20:42:36.591Z,94954.22
2023-03-03T20:45:38.936Z,94950.03
2023-03-03T20:48:38.202Z,94941.72
2023-03-03T20:51:29.937Z,94927.56
2023-03-03T20:54:22.524Z,94944.22
2023-03-03T20:57:12.335Z,94949.38
2023-03-03T21:00:03.445Z,94937.91
2023-03-03T21:02:56.052Z,94935.88
2023-03-03T21:05:57.555Z,94931.91
2023-03-03T21:08:49.914Z,94924.38
2023-03-03T21:11:44.024Z,94926.13
2023-03-03T21:14:29.109Z,94929.47
2023-03-03T21:17:28.011Z,94940.34
2023-03-03T21:20:21.292Z,94941.19
2023-03-03T21:23:04.813Z,94944.00
2023-03-03T21:25:52.311Z,94954.72
2023-03-03T21:28:36.390Z,94956.16
2023-03-03T21:31:19.759Z,94963.31
2023-03-03T21:34:18.931Z,94973.59
2023-03-03T21:37:03.332Z,94981.50
2023-03-03T21:39:46.982Z,94982.91
2023-03-03T21:42:41.673Z,94982.69
2023-03-03T21:45:25.165Z,94975.56
2023-03-03T21:48:08.669Z,94971.59
2023-03-03T21:50:53.312Z,94967.06
2023-03-03T21:53:36.528Z,94965.06
2023-03-03T21:56:19.929Z,94970.03
2023-03-03T21:59:03.176Z,94971.25
2023-03-03T22:01:46.801Z,94962.91
2023-03-03T22:04:30.983Z,94966.47
2023-03-03T22:07:15.792Z,94973.19
2023-03-03T22:09:58.955Z,94973.94
2023-03-03T22:12:42.094Z,94971.00
2023-03-03T22:15:25.477Z,94967.06
2023-03-03T22:18:08.957Z,94970.38
2023-03-03T22:20:52.134Z,94979.09
2023-03-03T22:23:39.500Z,94970.38
2023-03-03T22:26:22.935Z,94976.56
2023-03-03T22:29:09.222Z,94963.50
2023-03-03T22:31:52.850Z,94968.75
2023-03-03T22:34:36.218Z,94968.03
2023-03-03T22:37:19.446Z,94966.41
2023-03-03T22:40:04.511Z,94951.84
2023-03-03T22:42:48.146Z,94981.94
2023-03-03T22:45:31.656Z,94981.16
2023-03-03T22:48:16.227Z,94985.91
2023-03-03T22:50:59.463Z,94972.59
2023-03-03T22:53:42.780Z,94970.38
2023-03-03T22:56:27.393Z,94976.75
2023-03-03T22:59:10.523Z,94977.88
2023-03-03T23:01:53.906Z,94975.88
2023-03-03T23:04:37.189Z,94984.03
2023-03-03T23:07:20.541Z,94991.78
2023-03-03T23:10:03.957Z,94993.75
2023-03-03T23:12:48.518Z,95010.44
2023-03-03T23:15:32.100Z,95005.28
2023-03-03T23:18:15.226Z,94999.69
2023-03-03T23:20:59.048Z,95005.66
2023-03-03T23:23:42.179Z,95007.28
2023-03-03T23:26:25.359Z,95002.44
2023-03-03T23:29:13.303Z,95004.44
2023-03-03T23:31:56.607Z,95000.72
2023-03-03T23:34:41.217Z,94997.56
2023-03-03T23:37:24.715Z,95004.88
2023-03-03T23:40:10.077Z,94997.78
2023-03-03T23:42:53.446Z,94999.72
2023-03-03T23:45:40.299Z,94999.97
2023-03-03T23:48:23.378Z,95000.19
2023-03-03T23:51:06.915Z,94995.63
2023-03-03T23:53:50.147Z,95002.22
2023-03-03T23:56:35.584Z,94992.44
2023-03-03T23:59:18.887Z,94993.06
